createdAt,value
2023-01-20T00:02:22.344Z,24.33
2023-01-20T00:05:09.158Z,28.25
2023-01-20T00:07:54.837Z,30.02
2023-01-20T00:10:41.090Z,33.72
2023-01-20T00:13:27.094Z,38.28
2023-01-20T00:16:14.561Z,36.30
2023-01-20T00:19:00.191Z,39.55
2023-01-20T00:21:45.727Z,34.08
2023-01-20T00:24:31.447Z,38.22
2023-01-20T00:27:19.612Z,38.65
2023-01-20T00:30:07.698Z,40.33
2023-01-20T00:32:54.814Z,39.10
2023-01-20T00:35:40.661Z,38.25
2023-01-20T00:38:26.539Z,32.83
2023-01-20T00:41:12.871Z,35.35
2023-01-20T00:43:58.533Z,35.50
2023-01-20T00:46:44.359Z,36.33
2023-01-20T00:49:31.738Z,33.80
2023-01-20T00:52:18.750Z,44.55
2023-01-20T00:55:04.991Z,40.33
2023-01-20T00:57:50.608Z,43.90
2023-01-20T01:00:36.091Z,37.25
2023-01-20T01:03:22.558Z,41.70
2023-01-20T01:06:13.170Z,38.97
2023-01-20T01:08:58.574Z,40.95
2023-01-20T01:11:44.478Z,32.92
2023-01-20T01:14:31.504Z,34.45
2023-01-20T01:17:17.065Z,37.42
2023-01-20T01:20:04.115Z,35.47
2023-01-20T01:22:51.087Z,31.17
2023-01-20T01:25:37.643Z,27.40
2023-01-20T01:28:23.513Z,29.88
2023-01-20T01:31:09.588Z,28.90
2023-01-20T01:33:55.292Z,33.15
2023-01-20T01:36:41.365Z,33.22
2023-01-20T01:39:28.437Z,38.75
2023-01-20T01:42:15.016Z,40.35
2023-01-20T01:45:23.256Z,35.00
2023-01-20T01:48:10.633Z,37.60
2023-01-20T01:51:01.421Z,39.35
2023-01-20T01:53:53.752Z,37.83
2023-01-20T01:56:43.684Z,39.78
2023-01-20T01:59:29.513Z,42.45
2023-01-20T02:02:15.487Z,39.53
2023-01-20T02:05:03.585Z,43.05
2023-01-20T02:07:49.708Z,40.50
2023-01-20T02:10:35.636Z,45.00
2023-01-20T02:13:22.969Z,55.80
2023-01-20T02:16:18.340Z,56.30
2023-01-20T02:19:30.858Z,56.72
2023-01-20T02:22:30.977Z,58.28
2023-01-20T02:26:06.150Z,55.22
2023-01-20T02:29:29.946Z,52.10
2023-01-20T02:32:25.728Z,56.25
2023-01-20T02:35:13.841Z,65.63
2023-01-20T02:38:11.580Z,63.90
2023-01-20T02:41:06.355Z,56.75
2023-01-20T02:43:59.178Z,61.63
2023-01-20T02:46:52.144Z,66.05
2023-01-20T02:49:46.191Z,67.88
2023-01-20T02:52:34.811Z,74.75
2023-01-20T02:55:28.178Z,69.43
2023-01-20T02:58:18.955Z,67.47
2023-01-20T03:01:10.413Z,70.18
2023-01-20T03:03:59.283Z,72.13
2023-01-20T03:06:49.438Z,66.03
2023-01-20T03:09:37.683Z,66.80
2023-01-20T03:12:28.084Z,76.40
2023-01-20T03:15:14.852Z,72.68
2023-01-20T03:18:00.942Z,78.60
2023-01-20T03:20:47.352Z,86.35
2023-01-20T03:23:37.586Z,78.78
2023-01-20T03:26:24.074Z,82.57
2023-01-20T03:29:16.161Z,79.32
2023-01-20T03:32:10.902Z,83.10
2023-01-20T03:34:58.299Z,84.82
2023-01-20T03:37:45.232Z,84.72
2023-01-20T03:40:37.711Z,78.68
2023-01-20T03:43:31.282Z,82.60
2023-01-20T03:46:27.654Z,88.78
2023-01-20T03:49:19.631Z,82.45
2023-01-20T03:52:16.612Z,91.00
2023-01-20T03:55:05.979Z,81.72
2023-01-20T03:57:56.453Z,78.10
2023-01-20T04:00:46.395Z,81.80
2023-01-20T04:03:36.907Z,82.82
2023-01-20T04:06:26.039Z,87.60
2023-01-20T04:09:16.959Z,77.95
2023-01-20T04:12:03.121Z,76.70
2023-01-20T04:14:50.357Z,72.82
2023-01-20T04:17:36.178Z,81.28
2023-01-20T04:20:21.895Z,70.63
2023-01-20T04:23:14.343Z,82.60
2023-01-20T04:26:00.231Z,66.47
2023-01-20T04:28:45.994Z,66.15
2023-01-20T04:31:33.336Z,69.50
2023-01-20T04:34:19.438Z,65.50
2023-01-20T04:37:05.037Z,64.93
2023-01-20T04:39:50.874Z,68.15
2023-01-20T04:42:37.066Z,62.58
2023-01-20T04:45:22.777Z,63.55
2023-01-20T04:48:10.445Z,70.50
2023-01-20T04:50:56.083Z,67.25
2023-01-20T04:53:42.018Z,64.80
2023-01-20T04:56:27.857Z,67.55
2023-01-20T04:59:13.675Z,56.17
2023-01-20T05:01:59.412Z,59.72
2023-01-20T05:04:46.460Z,64.15
2023-01-20T05:07:32.089Z,72.22
2023-01-20T05:10:17.871Z,67.43
2023-01-20T05:13:03.244Z,72.15
2023-01-20T05:15:49.162Z,69.72
2023-01-20T05:18:35.310Z,72.18
2023-01-20T05:21:22.579Z,66.97
2023-01-20T05:24:08.844Z,70.88
2023-01-20T05:26:54.842Z,75.07
2023-01-20T05:29:40.499Z,73.38
2023-01-20T05:32:26.272Z,66.55
2023-01-20T05:35:11.888Z,76.15
2023-01-20T05:37:59.038Z,69.60
2023-01-20T05:40:45.091Z,74.55
2023-01-20T05:43:30.774Z,73.22
2023-01-20T05:46:16.236Z,83.47
2023-01-20T05:49:03.074Z,75.40
2023-01-20T05:51:48.730Z,83.88
2023-01-20T05:54:35.683Z,79.65
2023-01-20T05:57:24.139Z,77.57
2023-01-20T06:00:11.231Z,80.38
2023-01-20T06:02:57.161Z,82.95
2023-01-20T06:05:43.052Z,83.55
2023-01-20T06:08:28.960Z,77.55
2023-01-20T06:11:17.882Z,86.70
2023-01-20T06:14:03.476Z,77.40
2023-01-20T06:16:50.208Z,78.22
2023-01-20T06:19:35.949Z,71.45
2023-01-20T06:22:21.909Z,76.97
2023-01-20T06:25:08.127Z,70.20
2023-01-20T06:27:55.430Z,70.25
2023-01-20T06:30:43.146Z,79.25
2023-01-20T06:33:29.092Z,76.80
2023-01-20T06:36:16.969Z,72.10
2023-01-20T06:39:02.596Z,75.03
2023-01-20T06:41:48.512Z,74.40
2023-01-20T06:44:38.781Z,69.10
2023-01-20T06:47:24.179Z,70.25
2023-01-20T06:50:10.490Z,75.53
2023-01-20T06:52:56.818Z,65.90
2023-01-20T06:55:42.944Z,70.30
2023-01-20T06:58:30.215Z,64.90
2023-01-20T07:01:22.141Z,64.40
2023-01-20T07:04:08.400Z,68.22
2023-01-20T07:06:54.171Z,68.60
2023-01-20T07:09:40.334Z,62.88
2023-01-20T07:12:26.023Z,61.75
2023-01-20T07:15:12.313Z,62.95
2023-01-20T07:17:59.874Z,63.20
2023-01-20T07:20:45.899Z,58.75
2023-01-20T07:23:33.648Z,62.05
2023-01-20T07:26:21.561Z,69.70
2023-01-20T07:29:07.184Z,56.17
2023-01-20T07:31:52.928Z,62.05
2023-01-20T07:34:40.174Z,61.17
2023-01-20T07:37:26.182Z,63.00
2023-01-20T07:40:12.737Z,54.25
2023-01-20T07:42:58.606Z,65.10
2023-01-20T07:45:43.944Z,58.63
2023-01-20T07:48:31.205Z,58.38
2023-01-20T07:51:18.611Z,62.55
2023-01-20T07:54:04.507Z,59.70
2023-01-20T07:56:49.951Z,50.78
2023-01-20T07:59:35.550Z,62.78
2023-01-20T08:02:21.498Z,61.90
2023-01-20T08:05:07.980Z,65.07
2023-01-20T08:07:55.078Z,63.72
2023-01-20T08:10:40.849Z,61.55
2023-01-20T08:13:26.390Z,70.20
2023-01-20T08:16:13.875Z,67.15
2023-01-20T08:18:59.831Z,78.57
2023-01-20T08:21:45.695Z,71.85
2023-01-20T08:24:33.056Z,72.50
2023-01-20T08:27:19.739Z,76.45
2023-01-20T08:30:06.916Z,63.50
2023-01-20T08:32:52.655Z,63.65
2023-01-20T08:35:38.381Z,66.53
2023-01-20T08:38:23.979Z,64.20
2023-01-20T08:41:13.891Z,65.22
2023-01-20T08:44:01.141Z,71.00
2023-01-20T08:46:47.257Z,59.00
2023-01-20T08:49:32.906Z,59.92
2023-01-20T08:52:18.787Z,59.22
2023-01-20T08:55:06.354Z,58.20
2023-01-20T08:57:53.295Z,55.83
2023-01-20T09:00:39.282Z,64.43
2023-01-20T09:03:25.624Z,62.83
2023-01-20T09:06:11.916Z,57.47
2023-01-20T09:08:57.641Z,49.05
2023-01-20T09:11:50.468Z,52.25
2023-01-20T09:14:37.571Z,73.18
2023-01-20T09:17:23.323Z,82.28
2023-01-20T09:20:10.855Z,75.47
2023-01-20T09:22:56.812Z,63.30
2023-01-20T09:25:42.463Z,80.47
2023-01-20T09:28:30.267Z,71.13
2023-01-20T09:31:17.405Z,64.55
2023-01-20T09:34:03.078Z,67.10
2023-01-20T09:36:51.185Z,64.47
2023-01-20T09:39:55.275Z,57.88
2023-01-20T09:43:14.670Z,58.97
2023-01-20T09:46:09.101Z,64.82
2023-01-20T09:49:24.696Z,98.97
2023-01-20T09:52:35.777Z,59.35
2023-01-20T09:55:26.475Z,52.22
2023-01-20T09:58:22.895Z,47.15
2023-01-20T10:01:15.651Z,68.60
2023-01-20T10:04:12.882Z,75.82
2023-01-20T10:07:07.540Z,67.25
2023-01-20T10:09:57.393Z,58.70
2023-01-20T10:12:47.906Z,83.75
2023-01-20T10:15:36.460Z,58.13
2023-01-20T10:18:27.045Z,58.42
2023-01-20T10:21:19.713Z,61.40
2023-01-20T10:24:13.901Z,60.83
2023-01-20T10:27:02.592Z,46.05
2023-01-20T10:29:53.622Z,48.33
2023-01-20T10:32:45.536Z,53.63
2023-01-20T10:35:36.936Z,55.20
2023-01-20T10:38:30.181Z,44.15
2023-01-20T10:41:22.339Z,41.97
2023-01-20T10:44:12.121Z,41.05
2023-01-20T10:47:17.798Z,41.03
2023-01-20T10:50:20.371Z,38.40
2023-01-20T10:53:34.067Z,40.67
2023-01-20T10:56:36.388Z,43.17
2023-01-20T10:59:28.985Z,36.53
2023-01-20T11:02:18.074Z,40.53
2023-01-20T11:05:18.057Z,43.22
2023-01-20T11:08:10.291Z,42.83
2023-01-20T11:11:02.952Z,51.38
2023-01-20T11:13:51.625Z,38.67
2023-01-20T11:16:37.558Z,40.58
2023-01-20T11:19:23.211Z,37.05
2023-01-20T11:22:13.165Z,37.83
2023-01-20T11:25:00.218Z,36.03
2023-01-20T11:27:47.988Z,38.30
2023-01-20T11:30:35.643Z,37.10
2023-01-20T11:33:23.861Z,34.63
2023-01-20T11:36:18.921Z,33.40
2023-01-20T11:39:23.231Z,41.95
2023-01-20T11:42:16.131Z,37.67
2023-01-20T11:45:20.801Z,36.58
2023-01-20T11:48:18.067Z,37.72
2023-01-20T11:51:04.290Z,32.78
2023-01-20T11:53:50.401Z,33.63
2023-01-20T11:56:41.186Z,36.70
2023-01-20T11:59:29.293Z,37.15
2023-01-20T12:02:36.333Z,40.70
2023-01-20T12:05:52.480Z,35.53
2023-01-20T12:08:48.277Z,37.00
2023-01-20T12:11:37.170Z,37.47
2023-01-20T12:14:28.747Z,36.88
2023-01-20T12:17:21.689Z,32.63
2023-01-20T12:20:17.937Z,35.05
2023-01-20T12:23:21.099Z,43.75
2023-01-20T12:26:09.923Z,54.15
2023-01-20T12:29:02.122Z,30.92
2023-01-20T12:31:49.395Z,54.03
2023-01-20T12:34:35.456Z,33.20
2023-01-20T12:37:26.623Z,30.63
2023-01-20T12:40:22.539Z,29.73
2023-01-20T12:43:22.114Z,30.02
2023-01-20T12:46:32.306Z,34.58
2023-01-20T12:49:49.172Z,33.78
2023-01-20T12:52:47.860Z,26.23
2023-01-20T12:55:44.411Z,28.17
2023-01-20T12:58:42.752Z,26.73
2023-01-20T13:01:42.805Z,22.35
2023-01-20T13:05:05.420Z,29.15
2023-01-20T13:08:07.481Z,36.63
2023-01-20T13:11:03.422Z,26.35
2023-01-20T13:14:04.095Z,25.75
2023-01-20T13:16:56.321Z,24.67
2023-01-20T13:19:45.694Z,27.85
2023-01-20T13:22:31.801Z,23.90
2023-01-20T13:25:19.988Z,26.60
2023-01-20T13:28:07.882Z,27.45
2023-01-20T13:30:57.336Z,24.67
2023-01-20T13:33:43.084Z,26.25
2023-01-20T13:36:28.893Z,24.45
2023-01-20T13:39:40.672Z,26.67
2023-01-20T13:42:48.797Z,24.35
2023-01-20T13:45:34.801Z,23.77
2023-01-20T13:48:23.668Z,20.25
2023-01-20T13:51:44.909Z,21.10
2023-01-20T13:54:47.821Z,23.20
2023-01-20T13:57:36.957Z,23.17
2023-01-20T14:00:23.194Z,24.20
2023-01-20T14:03:17.635Z,20.50
2023-01-20T14:06:08.355Z,21.67
2023-01-20T14:08:54.159Z,23.77
2023-01-20T14:11:49.645Z,22.42
2023-01-20T14:14:42.417Z,19.88
2023-01-20T14:17:28.191Z,19.83
2023-01-20T14:20:23.593Z,20.00
2023-01-20T14:23:39.759Z,19.70
2023-01-20T14:26:28.396Z,19.50
2023-01-20T14:29:20.077Z,20.27
2023-01-20T14:32:19.958Z,19.33
2023-01-20T14:35:14.574Z,19.60
2023-01-20T14:38:00.775Z,16.05
2023-01-20T14:40:49.704Z,14.18
2023-01-20T14:43:35.401Z,15.63
2023-01-20T14:46:21.469Z,16.23
2023-01-20T14:49:15.885Z,19.02
2023-01-20T14:52:02.246Z,22.67
2023-01-20T14:54:53.012Z,19.45
2023-01-20T14:57:43.487Z,20.85
2023-01-20T15:00:31.089Z,19.40
2023-01-20T15:03:21.410Z,22.33
2023-01-20T15:06:20.739Z,20.55
2023-01-20T15:09:22.257Z,31.27
2023-01-20T15:12:34.050Z,20.65
2023-01-20T15:15:30.992Z,18.10
2023-01-20T15:18:23.193Z,16.65
2023-01-20T15:21:28.005Z,17.02
2023-01-20T15:24:15.279Z,16.52
2023-01-20T15:27:02.666Z,16.48
2023-01-20T15:30:20.917Z,12.95
2023-01-20T15:33:09.089Z,14.63
2023-01-20T15:35:56.920Z,15.30
2023-01-20T15:38:44.022Z,15.85
2023-01-20T15:41:29.697Z,11.93
2023-01-20T15:44:15.373Z,13.27
2023-01-20T15:47:00.787Z,15.10
2023-01-20T15:49:46.908Z,12.45
2023-01-20T15:52:32.788Z,12.98
2023-01-20T15:55:19.838Z,13.82
2023-01-20T15:58:26.317Z,15.00
2023-01-20T16:01:15.075Z,16.02
2023-01-20T16:04:00.973Z,11.70
2023-01-20T16:06:46.852Z,13.43
2023-01-20T16:09:37.074Z,14.35
2023-01-20T16:12:23.954Z,15.25
2023-01-20T16:15:14.790Z,15.93
2023-01-20T16:18:00.547Z,14.63
2023-01-20T16:20:47.743Z,12.23
2023-01-20T16:23:33.794Z,14.43
2023-01-20T16:26:22.775Z,16.17
2023-01-20T16:29:10.179Z,22.25
2023-01-20T16:31:56.368Z,15.00
2023-01-20T16:34:42.735Z,13.43
2023-01-20T16:37:28.487Z,16.52
2023-01-20T16:40:16.749Z,13.68
2023-01-20T16:43:02.199Z,22.27
2023-01-20T16:45:56.023Z,17.88
2023-01-20T16:48:42.116Z,15.77
2023-01-20T16:51:29.045Z,17.00
2023-01-20T16:54:15.145Z,19.50
2023-01-20T16:57:01.137Z,22.02
2023-01-20T16:59:46.782Z,18.73
2023-01-20T17:02:39.044Z,20.13
2023-01-20T17:05:27.332Z,23.17
2023-01-20T17:08:13.084Z,23.00
2023-01-20T17:10:59.349Z,38.95
2023-01-20T17:13:45.251Z,24.88
2023-01-20T17:16:31.598Z,31.67
2023-01-20T17:19:19.004Z,38.08
2023-01-20T17:22:04.902Z,37.25
2023-01-20T17:24:50.735Z,35.78
2023-01-20T17:27:37.333Z,55.92
2023-01-20T17:30:26.120Z,36.10
2023-01-20T17:33:12.099Z,52.40
2023-01-20T17:36:00.475Z,33.63
2023-01-20T17:38:46.597Z,51.88
2023-01-20T17:41:32.264Z,44.20
2023-01-20T17:44:17.703Z,45.83
2023-01-20T17:47:04.265Z,39.97
2023-01-20T17:49:50.323Z,46.22
2023-01-20T17:52:37.773Z,41.03
2023-01-20T17:55:23.672Z,29.55
2023-01-20T17:58:10.322Z,38.00
2023-01-20T18:00:56.077Z,43.75
2023-01-20T18:03:43.177Z,39.95
2023-01-20T18:06:30.506Z,42.83
2023-01-20T18:09:17.873Z,55.28
2023-01-20T18:12:03.942Z,52.75
2023-01-20T18:14:49.853Z,86.93
2023-01-20T18:17:35.607Z,45.28
2023-01-20T18:20:21.926Z,46.50
2023-01-20T18:23:07.886Z,49.35
2023-01-20T18:25:56.335Z,48.42
2023-01-20T18:28:42.533Z,51.10
2023-01-20T18:31:31.809Z,51.20
2023-01-20T18:34:17.956Z,42.83
2023-01-20T18:37:03.805Z,42.95
2023-01-20T18:39:50.385Z,54.88
2023-01-20T18:42:37.269Z,47.47
2023-01-20T18:45:23.041Z,55.60
2023-01-20T18:48:09.920Z,51.83
2023-01-20T18:50:59.941Z,56.58
2023-01-20T18:53:47.268Z,52.50
2023-01-20T18:56:34.143Z,47.25
2023-01-20T18:59:21.618Z,51.70
2023-01-20T19:02:09.241Z,48.67
2023-01-20T19:04:54.941Z,48.88
2023-01-20T19:07:40.823Z,52.88
2023-01-20T19:10:27.263Z,54.13
2023-01-20T19:13:13.894Z,47.22
2023-01-20T19:16:01.137Z,44.47
2023-01-20T19:18:51.148Z,42.60
2023-01-20T19:21:37.463Z,54.93
2023-01-20T19:24:27.206Z,50.90
2023-01-20T19:27:13.033Z,51.20
2023-01-20T19:29:58.500Z,66.30
2023-01-20T19:32:45.781Z,48.35
2023-01-20T19:35:33.461Z,53.30
2023-01-20T19:38:19.128Z,48.97
2023-01-20T19:41:05.819Z,109.18
2023-01-20T19:43:55.455Z,84.80
2023-01-20T19:46:41.440Z,61.83
2023-01-20T19:49:28.670Z,49.03
2023-01-20T19:52:14.697Z,60.25
2023-01-20T19:55:00.973Z,76.80
2023-01-20T19:57:46.442Z,74.60
2023-01-20T20:00:32.889Z,84.07
2023-01-20T20:03:18.907Z,59.53
2023-01-20T20:06:08.230Z,96.00
2023-01-20T20:08:56.841Z,79.50
2023-01-20T20:11:43.107Z,71.05
2023-01-20T20:14:31.201Z,63.50
2023-01-20T20:17:16.785Z,54.97
2023-01-20T20:20:03.078Z,57.85
2023-01-20T20:22:50.293Z,53.53
2023-01-20T20:25:37.710Z,61.20
2023-01-20T20:28:23.847Z,119.38
2023-01-20T20:31:09.928Z,61.85
2023-01-20T20:33:59.739Z,69.05
2023-01-20T20:36:46.325Z,56.97
2023-01-20T20:39:33.613Z,55.00
2023-01-20T20:42:19.008Z,73.82
2023-01-20T20:45:05.785Z,56.90
2023-01-20T20:47:52.014Z,68.75
2023-01-20T20:50:37.520Z,63.88
2023-01-20T20:53:23.242Z,79.63
2023-01-20T20:56:12.600Z,77.07
2023-01-20T20:59:02.360Z,65.82
2023-01-20T21:01:52.634Z,51.83
2023-01-20T21:04:38.533Z,55.70
2023-01-20T21:07:24.746Z,61.72
2023-01-20T21:10:13.918Z,55.00
2023-01-20T21:13:01.597Z,67.85
2023-01-20T21:15:55.368Z,57.80
2023-01-20T21:18:41.784Z,71.03
2023-01-20T21:21:30.640Z,65.75
2023-01-20T21:24:16.138Z,76.93
2023-01-20T21:27:01.918Z,77.88
2023-01-20T21:29:49.250Z,63.22
2023-01-20T21:32:40.695Z,52.65
2023-01-20T21:38:12.044Z,49.60
2023-01-20T21:41:00.104Z,57.70
2023-01-20T21:44:06.386Z,74.43
2023-01-20T21:46:53.398Z,62.53
2023-01-20T21:49:57.871Z,80.65
2023-01-20T21:52:45.309Z,72.85
2023-01-20T21:55:31.165Z,63.58
2023-01-20T21:58:16.853Z,67.28
2023-01-20T22:01:02.581Z,63.70
2023-01-20T22:03:49.636Z,56.63
2023-01-20T22:06:35.677Z,51.75
2023-01-20T22:09:21.387Z,54.90
2023-01-20T22:12:07.673Z,50.92
2023-01-20T22:14:53.287Z,47.35
2023-01-20T22:17:39.067Z,50.28
2023-01-20T22:20:27.985Z,52.35
2023-01-20T22:23:14.229Z,51.95
2023-01-20T22:26:00.247Z,47.90
2023-01-20T22:28:46.033Z,49.72
2023-01-20T22:31:32.037Z,48.00
2023-01-20T22:34:18.318Z,48.38
2023-01-20T22:37:05.391Z,49.70
2023-01-20T22:39:51.465Z,51.47
2023-01-20T22:42:37.124Z,46.13
2023-01-20T22:45:22.966Z,50.78
2023-01-20T22:48:08.744Z,54.10
2023-01-20T22:50:54.661Z,50.45
2023-01-20T22:53:43.415Z,51.67
2023-01-20T22:56:31.378Z,51.05
2023-01-20T22:59:17.303Z,47.45
2023-01-20T23:02:03.002Z,48.78
2023-01-20T23:04:48.818Z,48.83
2023-01-20T23:07:34.915Z,45.05
2023-01-20T23:10:40.739Z,52.75
2023-01-20T23:13:27.073Z,54.47
2023-01-20T23:16:15.141Z,52.47
2023-01-20T23:19:00.831Z,52.83
2023-01-20T23:21:46.715Z,47.92
2023-01-20T23:24:32.545Z,58.40
2023-01-20T23:27:19.468Z,37.40
2023-01-20T23:30:06.492Z,59.97
2023-01-20T23:32:52.362Z,50.95
2023-01-20T23:35:39.051Z,47.90
2023-01-20T23:38:24.641Z,52.28
2023-01-20T23:41:10.782Z,57.47
2023-01-20T23:43:58.078Z,52.17
2023-01-20T23:46:43.766Z,47.72
2023-01-20T23:49:29.372Z,54.05
2023-01-20T23:52:15.141Z,50.80
2023-01-20T23:55:01.291Z,50.90
2023-01-20T23:57:47.069Z,52.38
